Time;durP1;ratioP1;P1;durP2;ratioP2;P2;SDS_P1;SDS_P2;PMS_P1;PMS_P2;Temp;Humidity;BMP_temperature;BMP_pressure;BME280_temperature;BME280_humidity;BME280_pressure;Samples;Min_cycle;Max_cycle;Signal;HPM_P1;HPM_P2
2022/05/07 00:00:48;;;;;;;15.23;13.73;;;11.20;99.90;;;-141.84;83.54;17422.50;5113276;28;20219;-58
2022/05/07 00:03:18;;;;;;;15.07;13.53;;;11.10;99.90;;;-141.84;84.28;17398.13;5113092;28;20296;-57
2022/05/07 00:05:46;;;;;;;15.90;13.93;;;11.10;99.90;;;-141.84;84.71;17385.94;5113062;28;20310;-59
2022/05/07 00:08:14;;;;;;;14.50;13.07;;;11.00;99.90;;;-141.84;84.99;17381.88;5113174;28;20223;-59
2022/05/07 00:10:43;;;;;;;15.63;13.93;;;11.00;99.90;;;-141.84;84.71;17418.44;5113202;28;20290;-59
2022/05/07 00:13:11;;;;;;;15.73;13.60;;;11.00;99.90;;;-141.84;85.08;17381.88;5112785;28;20262;-59
2022/05/07 00:15:39;;;;;;;15.63;14.10;;;10.90;99.90;;;-141.84;85.67;17371.72;5112599;28;20230;-57
2022/05/07 00:18:10;;;;;;;14.57;13.17;;;11.00;99.90;;;-141.84;85.41;17375.78;5112870;28;20306;-57
2022/05/07 00:20:40;;;;;;;14.43;12.97;;;10.90;99.90;;;-141.84;84.80;17383.91;5105220;28;20781;-56
2022/05/07 00:23:08;;;;;;;16.27;14.37;;;10.90;99.90;;;-141.84;83.66;17375.78;5092131;28;20208;-58
2022/05/07 00:25:36;;;;;;;15.37;13.80;;;11.00;99.90;;;-141.84;82.60;17418.44;5092515;28;20654;-59
2022/05/07 00:28:04;;;;;;;16.33;14.53;;;11.10;99.90;;;-141.84;82.25;17408.28;5092379;28;20235;-59
2022/05/07 00:30:32;;;;;;;15.53;13.63;;;11.10;99.90;;;-141.84;82.75;17396.09;5090834;28;20255;-59
2022/05/07 00:33:00;;;;;;;15.07;13.57;;;11.10;99.90;;;-141.84;83.09;17404.22;5092023;28;20224;-58
2022/05/07 00:35:28;;;;;;;15.97;14.30;;;11.10;99.90;;;-141.84;82.69;17416.41;5092208;28;20227;-58
2022/05/07 00:37:58;;;;;;;18.07;16.27;;;11.10;99.90;;;-141.84;83.72;17371.72;5092148;28;20200;-59
2022/05/07 00:40:26;;;;;;;20.37;18.37;;;11.00;99.90;;;-141.84;84.74;17373.75;5092317;28;20325;-58
2022/05/07 00:42:54;;;;;;;21.17;19.07;;;11.00;99.90;;;-141.84;84.32;17365.63;5091819;28;20231;-57
2022/05/07 00:45:22;;;;;;;19.47;17.67;;;11.00;99.90;;;-141.84;83.75;17404.22;5091776;28;20232;-57
2022/05/07 00:47:50;;;;;;;17.57;15.67;;;11.00;99.90;;;-141.84;83.62;17353.44;5091790;28;20220;-58
2022/05/07 00:53:06;;;;;;;16.90;15.20;;;11.00;99.90;;;-141.84;84.88;17339.22;5112013;28;20184;-59
2022/05/07 00:55:35;;;;;;;15.70;14.10;;;10.90;99.90;;;-141.84;85.70;17347.34;5112240;28;20466;-59
2022/05/07 00:58:04;;;;;;;16.07;14.40;;;10.80;99.90;;;-141.84;84.85;17325.00;5111991;28;20246;-59
2022/05/07 01:00:32;;;;;;;15.97;14.27;;;10.80;99.90;;;-141.84;85.10;17351.41;5111788;28;20409;-59
2022/05/07 01:03:00;;;;;;;16.60;14.87;;;10.80;99.90;;;-141.84;85.40;17322.97;5111852;28;20722;-59
2022/05/07 01:05:28;;;;;;;16.07;14.37;;;10.70;99.90;;;-141.84;86.18;17320.94;5112005;28;20219;-59
2022/05/07 01:07:56;;;;;;;16.73;14.30;;;10.70;99.90;;;-141.84;86.75;17310.78;5111835;28;20249;-59
2022/05/07 01:10:26;;;;;;;18.57;15.40;;;10.60;99.90;;;-141.84;86.30;17286.41;5112096;28;20634;-57
2022/05/07 01:12:55;;;;;;;17.90;16.00;;;10.60;99.90;;;-141.84;86.35;17306.72;5111697;28;20306;-58
2022/05/07 01:15:23;;;;;;;21.63;19.43;;;10.60;99.90;;;-141.84;85.72;17290.47;5111413;28;20243;-59
2022/05/07 01:17:51;;;;;;;19.87;17.90;;;10.60;99.90;;;-141.84;86.09;17286.41;5111658;28;20230;-56
2022/05/07 01:20:19;;;;;;;17.30;15.60;;;10.60;99.90;;;-141.84;86.11;17302.66;5110857;28;20268;-58
2022/05/07 01:22:49;;;;;;;20.33;16.00;;;10.60;99.90;;;-141.84;86.02;17286.41;5105836;28;20202;-60
2022/05/07 01:25:17;;;;;;;18.40;16.00;;;10.60;99.90;;;-141.84;85.59;17298.59;5091130;28;20227;-58
2022/05/07 01:27:45;;;;;;;18.97;17.03;;;10.60;99.90;;;-141.84;85.19;17310.78;5091090;28;20228;-58
2022/05/07 01:30:14;;;;;;;16.27;14.60;;;10.60;99.90;;;-141.84;84.53;17290.47;5091003;28;20223;-59
2022/05/07 01:32:42;;;;;;;15.60;14.10;;;10.60;99.90;;;-141.84;84.55;17290.47;5091058;28;20234;-58
2022/05/07 01:35:10;;;;;;;17.00;15.30;;;10.60;99.90;;;-141.84;86.00;17231.56;5091118;28;20283;-59
2022/05/07 01:37:38;;;;;;;17.77;15.77;;;10.50;99.90;;;-141.84;86.96;17235.63;5091305;28;20744;-59
2022/05/07 01:40:11;;;;;;;16.37;14.43;;;10.50;99.90;;;-141.84;86.85;17227.50;5090322;28;20231;-57
2022/05/07 01:42:39;;;;;;;15.97;14.47;;;10.50;99.90;;;-141.84;86.79;17249.84;5090705;28;20232;-57
2022/05/07 01:45:08;;;;;;;15.73;14.10;;;10.50;99.90;;;-141.84;86.87;17235.63;5090758;28;20224;-56
2022/05/07 01:50:23;;;;;;;16.00;14.30;;;10.50;99.90;;;-141.84;86.34;17249.84;5095819;28;20306;-59
2022/05/07 01:52:51;;;;;;;16.67;14.07;;;10.40;99.90;;;-141.84;86.81;17209.22;5111545;28;20599;-60
2022/05/07 01:55:21;;;;;;;14.57;13.07;;;10.40;99.90;;;-141.84;86.98;17207.19;5111273;28;20229;-58
2022/05/07 01:57:49;;;;;;;14.90;13.40;;;10.40;99.90;;;-141.84;86.86;17180.78;5110831;28;20667;-58
2022/05/07 02:00:17;;;;;;;15.53;13.97;;;10.30;99.90;;;-141.84;85.79;17213.28;5110708;28;20608;-59
2022/05/07 02:02:45;;;;;;;16.57;13.80;;;10.30;99.90;;;-141.84;86.36;17215.31;5111083;28;20307;-58
2022/05/07 02:05:13;;;;;;;14.03;12.63;;;10.30;99.90;;;-141.84;86.79;17219.38;5111118;28;20231;-59
2022/05/07 02:07:41;;;;;;;14.63;12.47;;;10.30;99.90;;;-141.84;86.50;17201.09;5111878;28;20195;-58
2022/05/07 02:10:10;;;;;;;13.73;12.40;;;10.30;99.90;;;-141.84;85.96;17207.19;5110632;28;20223;-59
2022/05/07 02:12:39;;;;;;;15.80;14.20;;;10.30;99.90;;;-141.84;86.08;17209.22;5110675;28;20272;-59
2022/05/07 02:15:08;;;;;;;16.17;14.47;;;10.40;99.90;;;-141.84;85.64;17201.09;5106131;28;20216;-59
2022/05/07 02:17:36;;;;;;;17.90;16.30;;;10.40;99.90;;;-141.84;85.20;17209.22;5090210;28;20251;-58
2022/05/07 02:20:05;;;;;;;16.23;14.67;;;10.40;99.90;;;-141.84;85.23;17213.28;5092287;28;20789;-57
2022/05/07 02:22:33;;;;;;;16.00;14.40;;;10.40;99.90;;;-141.84;85.75;17201.09;5106796;28;20195;-59
2022/05/07 02:25:01;;;;;;;13.70;12.40;;;10.40;99.90;;;-141.84;86.28;17132.06;5090195;28;20307;-56
2022/05/07 02:27:30;;;;;;;14.10;12.70;;;10.40;99.90;;;-141.84;84.55;17186.88;5090531;28;20223;-58
2022/05/07 02:29:59;;;;;;;15.90;12.80;;;10.50;99.90;;;-141.84;84.35;17201.09;5090202;28;20228;-56
2022/05/07 02:32:28;;;;;;;14.70;12.87;;;10.50;99.90;;;-141.84;84.75;17197.03;5089846;28;20718;-56
2022/05/07 02:34:56;;;;;;;13.87;12.07;;;10.50;99.90;;;-141.84;84.68;17197.03;5090388;28;20223;-58
2022/05/07 02:37:24;;;;;;;12.60;11.30;;;10.50;99.90;;;-141.84;83.68;17190.94;5090847;28;20423;-58
2022/05/07 02:39:53;;;;;;;11.97;10.70;;;10.50;99.90;;;-141.84;83.64;17217.34;5089980;28;20734;-58
2022/05/07 02:42:33;;;;;;;12.50;11.20;;;10.60;99.90;;;-141.84;83.78;17217.34;5090071;28;20738;-58
2022/05/07 02:45:03;;;;;;;11.67;10.33;;;10.60;99.90;;;-141.84;83.38;17207.19;5090077;28;20764;-59
2022/05/07 02:47:31;;;;;;;11.60;10.47;;;10.60;99.90;;;-141.84;82.79;17195.00;5089986;28;20220;-57
2022/05/07 02:49:59;;;;;;;11.53;10.30;;;10.60;99.90;;;-141.84;82.74;17209.22;5091532;28;20667;-57
2022/05/07 02:52:28;;;;;;;11.63;10.40;;;10.70;99.90;;;-141.84;81.53;17219.38;5110854;28;20207;-60
2022/05/07 02:54:56;;;;;;;11.27;10.13;;;10.70;99.90;;;-141.84;81.01;17266.09;5114059;28;20227;-58
2022/05/07 02:57:24;;;;;;;10.33;9.33;;;10.80;99.90;;;-141.84;80.73;17255.94;5114038;28;20669;-58
2022/05/07 02:59:52;;;;;;;12.63;10.97;;;10.80;99.90;;;-141.84;81.92;17217.34;5114160;28;20258;-57
2022/05/07 03:02:21;;;;;;;12.13;10.83;;;10.70;99.90;;;-141.84;81.21;17251.88;5114076;28;20302;-59
2022/05/07 03:04:50;;;;;;;11.97;10.77;;;10.70;99.90;;;-141.84;81.85;17199.06;5114807;28;20195;-58
2022/05/07 03:07:18;;;;;;;12.40;11.10;;;10.70;99.90;;;-141.84;81.98;17201.09;5113933;28;20305;-59
2022/05/07 03:09:46;;;;;;;12.97;10.80;;;10.70;99.90;;;-141.84;82.96;17205.16;5114131;28;20559;-59
2022/05/07 03:12:14;;;;;;;13.17;11.07;;;10.70;99.90;;;-141.84;83.68;17152.34;5113380;28;20307;-58
2022/05/07 03:14:42;;;;;;;11.57;10.37;;;10.60;99.90;;;-141.84;83.84;17138.16;5113964;28;20223;-59
2022/05/07 03:17:10;;;;;;;11.17;9.67;;;10.60;99.90;;;-141.84;84.31;17150.31;5113740;28;20214;-59
2022/05/07 03:19:39;;;;;;;10.63;9.50;;;10.50;99.90;;;-141.84;84.81;17125.97;5114182;28;20294;-59
2022/05/07 03:22:07;;;;;;;11.67;10.10;;;10.50;99.90;;;-141.84;84.70;17125.97;5112907;28;20231;-59
2022/05/07 03:24:37;;;;;;;11.40;10.30;;;10.40;99.90;;;-141.84;84.40;17101.59;5093071;28;20312;-59
2022/05/07 03:27:06;;;;;;;12.37;10.43;;;10.40;99.90;;;-141.84;83.04;17152.34;5093182;28;20236;-56
2022/05/07 03:29:34;;;;;;;11.33;10.13;;;10.40;99.90;;;-141.84;82.88;17182.81;5093256;28;20224;-59
2022/05/07 03:32:02;;;;;;;11.23;10.13;;;10.50;99.90;;;-141.84;81.69;17199.06;5092813;28;20774;-59
2022/05/07 03:34:30;;;;;;;11.63;10.07;;;10.60;99.90;;;-141.84;81.86;17182.81;5093464;28;20662;-57
2022/05/07 03:37:00;;;;;;;12.27;9.87;;;10.60;99.90;;;-141.84;82.16;17203.13;5092671;28;20659;-59
2022/05/07 03:39:30;;;;;;;10.60;9.50;;;10.60;99.90;;;-141.84;82.67;17197.03;5092899;28;20317;-56
2022/05/07 03:41:58;;;;;;;11.70;9.93;;;10.60;99.90;;;-141.84;82.05;17176.72;5092899;28;20316;-57
2022/05/07 03:44:26;;;;;;;14.63;9.90;;;10.60;99.90;;;-141.84;82.78;17182.81;5093000;28;20322;-58
2022/05/07 03:46:54;;;;;;;10.70;9.60;;;10.50;99.90;;;-141.84;82.53;17186.88;5092377;28;20226;-59
2022/05/07 03:49:22;;;;;;;12.53;9.83;;;10.50;99.90;;;-141.84;82.93;17158.44;5093783;28;20207;-59
2022/05/07 03:54:38;;;;;;;10.80;9.70;;;10.50;99.90;;;-141.84;82.90;17164.53;5113242;28;20789;-58
2022/05/07 03:57:06;;;;;;;10.67;9.07;;;10.60;99.90;;;-141.84;83.17;17140.19;5113316;28;20252;-58
2022/05/07 03:59:34;;;;;;;13.20;9.83;;;10.70;99.90;;;-141.84;83.59;17162.50;5113610;28;20230;-59
2022/05/07 04:02:02;;;;;;;11.70;9.60;;;10.70;99.90;;;-141.84;83.54;17158.44;5113199;28;20294;-58
2022/05/07 04:04:30;;;;;;;10.73;8.93;;;10.80;99.90;;;-141.84;82.90;17195.00;5113317;28;20203;-59
2022/05/07 04:06:58;;;;;;;11.57;9.43;;;11.00;99.90;;;-141.84;81.77;17199.06;5112827;28;20316;-60
2022/05/07 04:09:26;;;;;;;13.23;11.93;;;11.10;99.90;;;-141.84;82.03;17168.59;5111912;28;20228;-59
2022/05/07 04:11:56;;;;;;;13.73;12.33;;;11.10;99.90;;;-141.84;82.85;17166.56;5112796;28;20219;-58
2022/05/07 04:14:24;;;;;;;13.80;12.30;;;11.20;99.90;;;-141.84;82.67;17211.25;5112516;28;20660;-57
2022/05/07 04:16:52;;;;;;;14.50;12.07;;;11.20;99.90;;;-141.84;81.49;17188.91;5112676;28;20291;-58
2022/05/07 04:19:20;;;;;;;12.83;10.73;;;11.20;99.90;;;-141.84;80.99;17209.22;5112986;28;20203;-59
2022/05/07 04:21:48;;;;;;;13.10;10.17;;;11.30;99.90;;;-141.84;80.37;17217.34;5112452;28;20774;-59
2022/05/07 04:24:16;;;;;;;11.83;10.27;;;11.30;99.90;;;-141.84;79.86;17257.97;5094155;28;20238;-59
2022/05/07 04:26:44;;;;;;;11.00;9.90;;;11.30;99.90;;;-141.84;79.93;17227.50;5092083;28;20231;-59
2022/05/07 04:29:16;;;;;;;13.47;9.70;;;11.50;99.90;;;-141.84;79.03;17249.84;5092028;28;20223;-57
2022/05/07 04:31:45;;;;;;;10.30;9.13;;;11.60;99.90;;;-141.84;78.50;17264.06;5092919;28;20188;-58
2022/05/07 04:34:13;;;;;;;11.70;9.40;;;11.60;99.90;;;-141.84;75.02;17361.56;5091865;28;20646;-60
2022/05/07 04:36:42;;;;;;;12.77;9.00;;;11.60;99.90;;;-141.84;73.85;17371.72;5091873;28;20234;-58
2022/05/07 04:39:10;;;;;;;13.70;9.20;;;11.70;99.90;;;-141.84;72.85;17408.28;5091863;28;20324;-58
2022/05/07 04:41:38;;;;;;;10.50;8.70;;;11.80;99.90;;;-141.84;71.76;17450.94;5091848;28;20243;-58
2022/05/07 04:44:06;;;;;;;8.90;8.00;;;12.00;99.90;;;-141.84;73.19;17412.34;5091825;28;20208;-59
2022/05/07 04:46:35;;;;;;;11.03;8.73;;;12.00;99.90;;;-141.84;73.31;17385.94;5091986;28;20794;-57
2022/05/07 04:49:05;;;;;;;11.23;8.97;;;12.10;99.90;;;-141.84;71.71;17457.03;5091490;28;20220;-57
2022/05/07 04:51:33;;;;;;;9.63;8.63;;;12.20;99.90;;;-141.84;70.01;17513.88;5106142;28;20302;-58
2022/05/07 04:54:07;;;;;;;11.37;8.10;;;12.30;99.90;;;-141.84;67.21;17591.06;5111728;28;20223;-59
2022/05/07 04:56:35;;;;;;;12.97;8.43;;;12.50;99.90;;;-141.84;63.68;17723.09;5111973;28;20218;-58
2022/05/07 04:59:03;;;;;;;11.70;7.60;;;12.90;99.90;;;-141.84;56.13;18052.19;5111799;28;20203;-58
2022/05/07 05:01:31;;;;;;;10.45;7.68;;;13.90;99.90;;;-141.84;52.99;18145.63;5112378;28;20202;-59
2022/05/07 05:04:01;;;;;;;8.63;7.00;;;14.90;99.90;;;-141.84;49.91;18338.63;5111332;28;20227;-57
2022/05/07 05:06:29;;;;;;;9.35;7.20;;;16.00;99.90;;;-141.84;46.67;18499.13;5111711;28;20223;-59
2022/05/07 05:08:57;;;;;;;11.38;8.02;;;16.80;99.90;;;-141.84;45.93;18539.75;5111333;28;20686;-59
2022/05/07 05:11:26;;;;;;;7.35;6.25;;;17.30;99.90;;;-141.84;45.10;18631.19;5111636;28;20311;-57
2022/05/07 05:13:54;;;;;;;10.20;7.22;;;17.40;99.90;;;-141.84;46.41;18529.59;5111571;28;20206;-57
2022/05/07 05:16:21;;;;;;;9.48;7.20;;;17.20;99.90;;;-141.84;48.82;18407.69;5111101;28;20207;-58
2022/05/07 05:18:50;;;;;;;9.52;7.43;;;16.90;99.90;;;-141.84;51.11;18257.38;5111264;28;20717;-58
2022/05/07 05:21:19;;;;;;;15.30;7.68;;;16.50;99.90;;;-141.84;53.92;18161.88;5098871;28;20310;-58
2022/05/07 05:23:47;;;;;;;11.32;7.95;;;15.70;99.90;;;-141.84;55.54;18143.59;5091008;28;20335;-57
2022/05/07 05:26:15;;;;;;;8.38;7.40;;;15.20;99.90;;;-141.84;57.77;17997.34;5090902;28;20304;-58
2022/05/07 05:28:45;;;;;;;9.00;7.50;;;14.90;99.90;;;-141.84;58.67;18003.44;5091026;28;20314;-58
2022/05/07 05:31:14;;;;;;;10.85;8.00;;;14.80;99.90;;;-141.84;58.46;17979.06;5090731;28;20234;-58
2022/05/07 05:33:42;;;;;;;8.63;7.70;;;14.70;99.90;;;-141.84;58.28;17989.22;5090952;28;20228;-57
2022/05/07 05:36:10;;;;;;;10.10;8.07;;;14.50;99.90;;;-141.84;58.84;17999.38;5090764;28;20235;-59
2022/05/07 05:38:39;;;;;;;12.10;8.23;;;14.50;99.90;;;-141.84;58.60;18003.44;5090840;28;20520;-61
2022/05/07 05:41:08;;;;;;;10.67;8.30;;;14.40;99.90;;;-141.84;59.54;17958.75;5090330;28;20231;-58
2022/05/07 05:43:37;;;;;;;8.47;7.67;;;14.60;99.90;;;-141.84;58.25;17995.31;5090937;28;20257;-58
2022/05/07 05:46:05;;;;;;;8.75;7.80;;;14.70;99.90;;;-141.84;57.84;17993.28;5090221;28;20647;-56
2022/05/07 05:48:34;;;;;;;11.77;7.70;;;14.60;99.90;;;-141.84;58.03;17989.22;5090370;28;20232;-61
2022/05/07 05:51:04;;;;;;;8.07;7.27;;;14.60;99.90;;;-141.84;58.90;17987.19;5100320;28;20231;-59
2022/05/07 05:53:32;;;;;;;12.70;8.43;;;14.70;99.90;;;-141.84;57.56;18013.59;5110787;28;20297;-59
2022/05/07 05:56:02;;;;;;;8.87;7.87;;;14.60;99.90;;;-141.84;58.43;17993.28;5110612;28;20199;-62
2022/05/07 05:58:33;;;;;;;12.73;8.30;;;14.70;99.90;;;-141.84;57.75;18050.16;5111085;28;20195;-58
2022/05/07 06:01:02;;;;;;;9.87;8.30;;;14.80;99.90;;;-141.84;57.35;18035.94;5109936;28;20732;-59
2022/05/07 06:03:31;;;;;;;9.48;7.10;;;14.90;99.90;;;-141.84;57.64;18074.53;5110505;28;20223;-57
2022/05/07 06:05:59;;;;;;;13.40;7.93;;;15.00;99.90;;;-141.84;56.46;18066.41;5110460;28;20310;-59
2022/05/07 06:08:27;;;;;;;9.05;6.90;;;15.00;99.90;;;-141.84;56.63;18021.72;5110256;28;20766;-59
2022/05/07 06:10:57;;;;;;;11.23;7.57;;;15.20;99.90;;;-141.84;55.11;18056.25;5110335;28;20599;-59
2022/05/07 06:13:26;;;;;;;10.07;7.97;;;15.30;99.90;;;-141.84;54.40;18082.66;5111575;28;20272;-56
2022/05/07 06:15:54;;;;;;;12.60;7.72;;;15.40;99.90;;;-141.84;54.29;18102.97;5109950;28;20226;-58
2022/05/07 06:18:25;;;;;;;10.95;8.00;;;15.40;99.90;;;-141.84;54.32;18074.53;5110348;28;20632;-58
2022/05/07 06:20:53;;;;;;;8.40;7.53;;;15.40;99.90;;;-141.84;55.47;18050.16;5101273;28;20258;-58
2022/05/07 06:23:21;;;;;;;10.30;8.00;;;15.40;99.90;;;-141.84;55.37;18094.84;5089772;28;20310;-56
2022/05/07 06:28:36;;;;;;;12.07;7.88;;;15.60;99.90;;;-141.84;54.58;18107.03;5092428;28;20294;-58
2022/05/07 06:31:04;;;;;;;11.60;7.40;;;15.60;99.90;;;-141.84;53.86;18113.13;5093858;28;20254;-57
2022/05/07 06:33:32;;;;;;;9.48;7.80;;;15.80;99.90;;;-141.84;53.44;18117.19;5094273;28;20327;-58
2022/05/07 06:36:00;;;;;;;8.45;6.95;;;15.80;99.90;;;-141.84;53.32;18117.19;5093827;28;20314;-57
2022/05/07 06:38:28;;;;;;;10.20;6.85;;;15.90;99.90;;;-141.84;53.04;18176.09;5093728;28;20247;-58
2022/05/07 06:40:56;;;;;;;9.23;7.28;;;16.00;99.90;;;-141.84;52.95;18109.06;5093693;28;20250;-59
2022/05/07 06:43:24;;;;;;;14.48;6.72;;;16.20;99.90;;;-141.84;52.52;18190.31;5094577;28;20227;-58
2022/05/07 06:45:54;;;;;;;11.93;6.55;;;16.20;99.90;;;-141.84;53.51;18129.38;5093815;28;20770;-58
2022/05/07 06:48:22;;;;;;;7.90;6.07;;;16.30;99.90;;;-141.84;52.73;18200.47;5093565;28;20226;-57
2022/05/07 06:50:50;;;;;;;9.65;7.35;;;16.40;99.90;;;-141.84;50.87;18198.44;5099574;27;20215;-58
2022/05/07 06:53:18;;;;;;;8.15;6.30;;;16.50;99.90;;;-141.84;51.09;18249.25;5117495;27;20211;-58
2022/05/07 06:55:59;;;;;;;8.88;6.13;;;16.60;99.90;;;-141.84;50.87;18261.44;5123000;27;20851;-58
2022/05/07 06:58:30;;;;;;;6.32;5.53;;;16.70;99.90;;;-141.84;50.21;18275.66;5111576;27;20586;-59
2022/05/07 07:01:02;;;;;;;8.75;5.75;;;16.70;99.90;;;-141.84;49.44;18285.81;5120816;27;20335;-58
2022/05/07 07:03:31;;;;;;;6.25;5.30;;;16.80;99.90;;;-141.84;50.01;18271.59;5109264;27;20618;-56
2022/05/07 07:06:02;;;;;;;8.07;5.68;;;16.90;99.90;;;-141.84;48.38;18324.41;5104650;28;20729;-58
2022/05/07 07:08:30;;;;;;;8.07;5.85;;;17.00;99.90;;;-141.84;49.62;18340.66;5112658;28;20235;-57
2022/05/07 07:10:59;;;;;;;8.55;5.68;;;17.00;99.90;;;-141.84;50.12;18304.09;5112727;28;20284;-58
2022/05/07 07:13:27;;;;;;;8.93;6.00;;;17.00;99.90;;;-141.84;50.00;18289.88;5113412;28;20204;-60
2022/05/07 07:15:55;;;;;;;8.10;5.13;;;17.00;99.90;;;-141.84;49.69;18326.44;5112472;28;20238;-58
2022/05/07 07:18:25;;;;;;;8.82;5.75;;;17.00;99.90;;;-141.84;49.83;18298.00;5112488;28;20598;-58
2022/05/07 07:20:53;;;;;;;8.52;5.95;;;17.10;99.90;;;-141.84;50.11;18298.00;5109293;28;20306;-59
2022/05/07 07:23:21;;;;;;;6.13;5.13;;;17.10;99.90;;;-141.84;49.04;18304.09;5110842;28;20223;-59
2022/05/07 07:25:48;;;;;;;6.43;5.60;;;17.10;99.90;;;-141.84;48.96;18336.59;5092925;28;20730;-59
2022/05/07 07:28:17;;;;;;;7.47;5.38;;;17.10;99.90;;;-141.84;48.52;18326.44;5102828;28;20230;-59
2022/05/07 07:30:45;;;;;;;7.20;5.40;;;17.20;99.90;;;-141.84;48.59;18363.00;5093529;28;20224;-59
2022/05/07 07:33:14;;;;;;;7.80;5.03;;;17.30;99.90;;;-141.84;47.21;18373.16;5109674;28;20351;-58
2022/05/07 07:35:44;;;;;;;7.80;5.47;;;17.30;99.90;;;-141.84;46.33;18367.06;5113035;28;20220;-58
2022/05/07 07:38:13;;;;;;;6.95;4.57;;;17.30;99.90;;;-141.84;46.23;18423.94;5112808;28;20230;-58
2022/05/07 07:40:43;;;;;;;7.70;4.90;;;17.40;99.90;;;-141.84;45.46;18462.56;5113351;28;20290;-58
2022/05/07 07:43:11;;;;;;;7.10;4.78;;;17.50;99.90;;;-141.84;45.88;18464.59;5112905;28;20261;-58
2022/05/07 07:48:25;;;;;;;5.88;4.60;;;17.70;99.90;;;-141.84;44.84;18488.97;5112552;28;20222;-58
2022/05/07 07:50:54;;;;;;;7.85;4.30;;;17.80;99.90;;;-141.84;44.28;18507.25;5112460;28;20314;-59
2022/05/07 07:53:22;;;;;;;6.65;4.60;;;17.90;99.90;;;-141.84;43.78;18547.88;5112048;28;20347;-59
2022/05/07 07:55:51;;;;;;;6.68;4.07;;;17.90;99.90;;;-141.84;43.35;18580.41;5113283;28;20306;-60
2022/05/07 07:58:19;;;;;;;6.30;4.05;;;18.00;99.90;;;-141.84;43.97;18566.16;5112887;28;20211;-59
2022/05/07 08:00:47;;;;;;;5.88;3.92;;;17.90;99.90;;;-141.84;43.52;18568.19;5110430;28;20239;-59
2022/05/07 08:03:17;;;;;;;6.70;3.78;;;17.90;99.90;;;-141.84;43.71;18582.44;5092119;28;20766;-58
2022/05/07 08:05:50;;;;;;;8.02;4.22;;;17.80;99.90;;;-141.84;42.92;18560.06;5104656;28;20226;-59
2022/05/07 08:13:54;;;;;;;5.45;3.78;;;18.10;99.90;;;-141.84;43.00;18584.47;5113075;28;20279;-58
2022/05/07 08:16:25;;;;;;;6.65;4.00;;;18.10;99.90;;;-141.84;43.02;18639.31;5113155;28;20727;-60
2022/05/07 08:18:53;;;;;;;5.57;3.92;;;18.20;99.90;;;-141.84;43.38;18582.44;5112624;28;20215;-59
2022/05/07 08:21:22;;;;;;;3.80;3.10;;;18.30;99.90;;;-141.84;43.02;18596.66;5099665;28;20694;-60
2022/05/07 08:23:51;;;;;;;8.02;3.22;;;18.30;99.90;;;-141.84;43.27;18633.22;5092439;28;20247;-58
2022/05/07 08:26:19;;;;;;;5.22;3.45;;;18.30;99.90;;;-141.84;43.23;18616.97;5092752;28;20230;-59
2022/05/07 08:28:47;;;;;;;5.05;3.33;;;18.40;99.90;;;-141.84;42.68;18623.06;5093359;28;20242;-58
2022/05/07 08:31:15;;;;;;;4.60;3.40;;;18.50;99.90;;;-141.84;42.99;18610.88;5092098;28;20310;-58
2022/05/07 08:33:43;;;;;;;4.65;3.17;;;18.50;99.90;;;-141.84;43.35;18639.31;5091783;28;20251;-59
2022/05/07 08:36:12;;;;;;;3.75;2.85;;;18.50;99.90;;;-141.84;42.04;18686.03;5091893;28;20838;-57
2022/05/07 08:38:42;;;;;;;3.38;2.75;;;18.70;99.90;;;-141.84;40.81;18696.19;5092200;28;20269;-62
2022/05/07 08:41:12;;;;;;;3.08;2.50;;;18.80;99.90;;;-141.84;40.77;18749.03;5091942;28;20284;-57
2022/05/07 08:43:43;;;;;;;4.30;2.72;;;18.90;99.90;;;-141.84;40.99;18753.09;5092385;28;20180;-58
2022/05/07 08:46:13;;;;;;;5.43;3.22;;;19.00;99.90;;;-141.84;39.83;18836.41;5091952;28;20285;-58
2022/05/07 08:48:46;;;;;;;3.97;2.53;;;19.10;99.90;;;-141.84;40.80;18781.53;5093768;28;20316;-59
2022/05/07 08:51:15;;;;;;;4.43;2.55;;;19.10;99.90;;;-141.84;39.14;18828.28;5111332;28;20305;-59
2022/05/07 08:53:44;;;;;;;3.90;2.60;;;19.30;99.90;;;-141.84;38.89;18879.06;5112255;28;20223;-58
2022/05/07 08:56:13;;;;;;;2.90;2.25;;;19.40;99.90;;;-141.84;38.96;18917.66;5112115;28;20300;-58
2022/05/07 08:58:47;;;;;;;2.80;2.60;;;19.60;99.90;;;-141.84;36.55;19041.63;5112826;28;20298;-59
2022/05/07 09:01:15;;;;;;;4.05;2.67;;;19.90;99.90;;;-141.84;36.12;19074.13;5111865;28;20275;-59
2022/05/07 09:03:46;;;;;;;3.00;2.60;;;20.20;99.90;;;-141.84;36.94;19066.00;5111255;28;20215;-56
2022/05/07 09:06:21;;;;;;;4.65;2.90;;;20.20;99.90;;;-141.84;36.44;19043.66;5112013;28;20227;-56
2022/05/07 09:08:50;;;;;;;2.80;2.50;;;20.20;99.90;;;-141.84;37.12;19007.06;5111680;28;20277;-56
2022/05/07 09:11:20;;;;;;;5.05;2.80;;;20.10;99.90;;;-141.84;37.62;18996.91;5111605;28;20226;-58
2022/05/07 09:14:01;;;;;;;4.03;2.72;;;19.90;99.90;;;-141.84;37.88;18931.91;5112549;28;20176;-56
2022/05/07 09:16:45;;;;;;;4.15;3.10;;;19.70;99.90;;;-141.84;38.01;18954.25;5110241;28;20591;-56
2022/05/07 09:19:25;;;;;;;3.47;3.13;;;19.70;99.90;;;-141.84;37.45;19013.16;5111028;28;20827;-58
2022/05/07 09:22:04;;;;;;;3.38;2.70;;;19.60;99.90;;;-141.84;37.13;18978.63;5093360;28;20307;-60
2022/05/07 09:24:32;;;;;;;4.07;3.63;;;19.70;99.90;;;-141.84;37.50;18998.94;5090547;28;20250;-58
2022/05/07 09:27:03;;;;;;;4.00;3.00;;;19.70;99.90;;;-141.84;37.30;18966.44;5090589;28;20718;-59
2022/05/07 09:29:32;;;;;;;4.00;3.15;;;19.70;99.90;;;-141.84;37.90;18921.75;5090519;28;20733;-57
2022/05/07 09:32:09;;;;;;;3.72;2.55;;;19.60;99.90;;;-141.84;37.47;18956.28;5090451;28;20295;-57
2022/05/07 09:37:36;;;;;;;4.05;2.70;;;19.70;99.90;;;-141.84;37.13;18978.63;5104790;28;20291;-56
2022/05/07 09:40:07;;;;;;;3.40;2.78;;;19.60;99.90;;;-141.84;37.63;18972.53;5101531;27;20301;-59
2022/05/07 09:42:36;;;;;;;3.50;3.05;;;19.50;99.90;;;-141.84;37.28;18980.66;5097824;28;21224;-58
2022/05/07 09:45:07;;;;;;;3.10;2.80;;;19.60;99.90;;;-141.84;36.97;19031.47;5106194;28;20302;-57
2022/05/07 09:47:37;;;;;;;3.15;2.50;;;19.70;99.90;;;-141.84;36.97;19031.47;5109166;28;20223;-58
2022/05/07 09:50:23;;;;;;;3.22;2.65;;;19.70;99.90;;;-141.84;37.43;19023.34;5108519;28;20963;-58
2022/05/07 09:58:25;;;;;;;3.40;2.60;;;19.80;99.90;;;-141.84;37.41;18968.47;5109093;28;20234;-57
2022/05/07 10:01:21;;;;;;;4.13;2.80;;;19.80;99.90;;;-141.84;37.45;18974.56;5109312;28;20216;-56
2022/05/07 10:04:06;;;;;;;5.43;3.05;;;19.80;99.90;;;-141.84;37.00;19005.03;5107127;28;20220;-61
2022/05/07 10:06:49;;;;;;;3.05;2.70;;;19.80;99.90;;;-141.84;37.04;19029.44;5107774;28;20306;-57
2022/05/07 10:09:37;;;;;;;3.65;3.13;;;19.90;99.90;;;-141.84;36.44;19074.13;5108503;28;20253;-60
2022/05/07 10:12:06;;;;;;;2.97;2.78;;;19.80;99.90;;;-141.84;36.44;19021.31;5111000;28;20276;-59
2022/05/07 10:14:36;;;;;;;4.88;2.80;;;19.90;99.90;;;-141.84;35.93;19053.81;5110667;28;20219;-59
2022/05/07 10:17:11;;;;;;;4.57;2.90;;;19.90;99.90;;;-141.84;35.68;19086.31;5110725;28;20179;-57
2022/05/07 10:19:42;;;;;;;3.50;3.03;;;19.90;99.90;;;-141.84;36.10;19053.81;5111124;28;20232;-57
2022/05/07 10:22:21;;;;;;;4.05;3.25;;;19.90;99.90;;;-141.84;35.91;19061.94;5109765;28;20257;-57
2022/05/07 10:25:03;;;;;;;4.82;2.92;;;19.90;99.90;;;-141.84;35.79;19082.25;5094139;28;20257;-57
2022/05/07 10:27:33;;;;;;;4.03;2.72;;;20.10;99.90;;;-141.84;36.11;19106.66;5110487;28;20302;-52
2022/05/07 10:30:14;;;;;;;3.40;3.10;;;20.10;99.90;;;-141.84;36.24;19094.44;5104157;28;20315;-59
2022/05/07 10:32:47;;;;;;;4.50;2.80;;;20.40;99.90;;;-141.84;35.24;19161.50;5090125;28;20238;-58
2022/05/07 10:35:36;;;;;;;3.40;2.83;;;20.40;99.90;;;-141.84;35.50;19167.59;5090942;28;20224;-57
2022/05/07 10:38:12;;;;;;;3.40;3.10;;;20.50;99.90;;;-141.84;34.46;19200.13;5110783;28;20195;-56